Terminal Aerodrome Forecast
Issued by NWS Sioux Falls, SD

Home | Current Version | Previous Version | Text Only | Print | Product List | Glossary Off
Versions: 1 2 3 4 5 6 7 8 9 10 11 12 13 14 15 16 17

000
FTUS43 KFSD 220521
TAFHON
TAF
KHON 220521Z 2206/2306 15016G25KT P6SM SCT150
     FM221000 16014G22KT P6SM SCT040 SCT120
      TEMPO 2212/2215 BKN020
     FM221800 22010KT 4SM -RA BKN012
     FM222200 27006KT P6SM SCT015 BKN035=

USA.gov is the U.S. government's official web portal to all federal, state and local government web resources and services.